Time;durP1;ratioP1;P1;durP2;ratioP2;P2;SDS_P1;SDS_P2;PMS_P1;PMS_P2;Temp;Humidity;BMP_temperature;BMP_pressure;BME280_temperature;BME280_humidity;BME280_pressure;Samples;Min_cycle;Max_cycle;Signal;HPM_P1;HPM_P2
2021/06/27 00:02:29;;;;;;;;;;;16.30;99.90;;;;;;5024073;28;20501;-66
2021/06/27 00:05:20;;;;;;;;;;;16.20;99.90;;;;;;5039975;28;20382;-65
2021/06/27 00:08:12;;;;;;;;;;;16.20;99.90;;;;;;5019381;28;19964;-64
2021/06/27 00:11:02;;;;;;;;;;;16.20;99.90;;;;;;5032425;28;20242;-65
2021/06/27 00:13:51;;;;;;;;;;;16.20;99.90;;;;;;5034784;28;19929;-65
2021/06/27 00:16:41;;;;;;;;;;;16.30;99.90;;;;;;5020788;28;20055;-65
2021/06/27 00:19:29;;;;;;;;;;;16.20;99.90;;;;;;5027066;28;19933;-65
2021/06/27 00:22:18;;;;;;;;;;;16.10;99.90;;;;;;5033192;28;20014;-65
2021/06/27 00:25:09;;;;;;;;;;;16.00;99.90;;;;;;5034547;28;19968;-65
2021/06/27 00:27:58;;;;;;;;;;;15.90;99.90;;;;;;5038690;28;20513;-65
2021/06/27 00:30:47;;;;;;;;;;;15.80;99.90;;;;;;5029415;28;20316;-66
2021/06/27 00:33:36;;;;;;;;;;;15.80;99.90;;;;;;5027955;28;20296;-66
2021/06/27 00:36:25;;;;;;;;;;;15.80;99.90;;;;;;5029110;28;19933;-66
2021/06/27 00:39:13;;;;;;;;;;;15.80;99.90;;;;;;5031016;28;20462;-66
2021/06/27 00:42:03;;;;;;;;;;;15.80;99.90;;;;;;5040507;28;19924;-66
2021/06/27 00:44:52;;;;;;;;;;;15.70;99.90;;;;;;5036470;28;19925;-65
2021/06/27 00:47:42;;;;;;;;;;;15.70;99.90;;;;;;5028719;28;20425;-66
2021/06/27 00:50:33;;;;;;;;;;;15.60;99.90;;;;;;5032586;28;20397;-65
2021/06/27 00:53:22;;;;;;;;;;;15.60;99.90;;;;;;5027916;28;19932;-65
2021/06/27 00:56:13;;;;;;;;;;;15.50;99.90;;;;;;5034107;28;20384;-65
2021/06/27 00:59:08;;;;;;;;;;;15.50;99.90;;;;;;5032011;28;19932;-65
2021/06/27 01:01:57;;;;;;;;;;;15.40;99.90;;;;;;5011962;28;19940;-67
2021/06/27 01:04:46;;;;;;;;;;;15.40;99.90;;;;;;5032771;28;19935;-66
2021/06/27 01:07:34;;;;;;;;;;;15.40;99.90;;;;;;5029873;28;19929;-66
2021/06/27 01:10:23;;;;;;;;;;;15.30;99.90;;;;;;5031924;28;19925;-65
2021/06/27 01:13:11;;;;;;;;;;;15.30;99.90;;;;;;5033081;28;19932;-65
2021/06/27 01:16:01;;;;;;;;;;;15.30;99.90;;;;;;5027124;28;19925;-66
2021/06/27 01:18:52;;;;;;;;;;;15.20;99.90;;;;;;5030654;28;19925;-65
2021/06/27 01:21:42;;;;;;;;;;;15.10;99.90;;;;;;5032154;28;20555;-65
2021/06/27 01:24:31;;;;;;;;;;;15.20;99.90;;;;;;5032021;28;19980;-65
2021/06/27 01:27:19;;;;;;;;;;;15.20;99.90;;;;;;5031494;28;19925;-65
2021/06/27 01:30:10;;;;;;;;;;;15.20;99.90;;;;;;5012594;28;19947;-65
2021/06/27 01:33:00;;;;;;;;;;;15.10;99.90;;;;;;5030578;28;19948;-65
2021/06/27 01:35:50;;;;;;;;;;;15.10;99.90;;;;;;5031450;28;19925;-65
2021/06/27 01:38:40;;;;;;;;;;;15.10;99.90;;;;;;5029830;28;20071;-65
2021/06/27 01:41:28;;;;;;;;;;;15.10;99.90;;;;;;5031656;28;20289;-66
2021/06/27 01:44:18;;;;;;;;;;;15.10;99.90;;;;;;5030075;28;19925;-67
2021/06/27 01:47:06;;;;;;;;;;;15.00;99.90;;;;;;5024568;28;20008;-66
2021/06/27 01:49:55;;;;;;;;;;;15.10;99.90;;;;;;5027047;28;19932;-66
2021/06/27 01:52:44;;;;;;;;;;;15.10;99.90;;;;;;5026749;28;19933;-66
2021/06/27 01:55:34;;;;;;;;;;;15.10;99.90;;;;;;5032971;28;19933;-66
2021/06/27 01:58:23;;;;;;;;;;;15.00;99.90;;;;;;5030942;28;19925;-66
2021/06/27 02:01:13;;;;;;;;;;;15.00;99.90;;;;;;5023953;28;19925;-66
2021/06/27 02:04:27;;;;;;;;;;;14.90;99.90;;;;;;5045433;28;19925;-66
2021/06/27 02:07:16;;;;;;;;;;;14.90;99.90;;;;;;5032513;28;19937;-65
2021/06/27 02:10:07;;;;;;;;;;;14.90;99.90;;;;;;5030143;28;20372;-66
2021/06/27 02:12:59;;;;;;;;;;;14.90;99.90;;;;;;5031060;28;19935;-65
2021/06/27 02:15:47;;;;;;;;;;;14.90;99.90;;;;;;5023780;28;20006;-65
2021/06/27 02:18:37;;;;;;;;;;;14.90;99.90;;;;;;5031351;28;19929;-66
2021/06/27 02:21:26;;;;;;;;;;;14.90;99.90;;;;;;5031334;28;19925;-66
2021/06/27 02:24:15;;;;;;;;;;;14.90;99.90;;;;;;5030865;28;19944;-66
2021/06/27 02:27:04;;;;;;;;;;;14.90;99.90;;;;;;5031097;28;19929;-66
2021/06/27 02:29:53;;;;;;;;;;;14.90;99.90;;;;;;5016180;28;19926;-66
2021/06/27 02:32:42;;;;;;;;;;;14.90;99.90;;;;;;5028315;28;19925;-67
2021/06/27 02:35:30;;;;;;;;;;;15.00;99.90;;;;;;5031533;28;20380;-65
2021/06/27 02:38:19;;;;;;;;;;;15.00;99.90;;;;;;5029774;28;20000;-66
2021/06/27 02:41:08;;;;;;;;;;;15.00;99.90;;;;;;5035428;28;19953;-66
2021/06/27 02:43:57;;;;;;;;;;;14.90;99.90;;;;;;5046260;28;19925;-66
2021/06/27 02:46:47;;;;;;;;;;;14.90;99.90;;;;;;5034274;28;19945;-66
2021/06/27 02:49:37;;;;;;;;;;;14.80;99.90;;;;;;5032303;28;19933;-66
2021/06/27 02:52:28;;;;;;;;;;;14.80;99.90;;;;;;5030226;28;20319;-65
2021/06/27 02:55:16;;;;;;;;;;;14.80;99.90;;;;;;5030721;28;20081;-65
2021/06/27 02:58:29;;;;;;;;;;;14.70;99.90;;;;;;5029830;28;20293;-66
2021/06/27 03:01:18;;;;;;;;;;;14.70;99.90;;;;;;5024182;28;19933;-66
2021/06/27 03:04:08;;;;;;;;;;;14.60;99.90;;;;;;5027111;28;20016;-65
2021/06/27 03:06:57;;;;;;;;;;;14.70;99.90;;;;;;5027990;28;20024;-66
2021/06/27 03:09:47;;;;;;;;;;;14.60;99.90;;;;;;5028004;28;19939;-66
2021/06/27 03:12:37;;;;;;;;;;;14.60;99.90;;;;;;5030474;28;20547;-66
2021/06/27 03:15:25;;;;;;;;;;;14.60;99.90;;;;;;5008716;28;19929;-66
2021/06/27 03:18:14;;;;;;;;;;;14.60;99.90;;;;;;5028932;28;19925;-65
2021/06/27 03:21:04;;;;;;;;;;;14.50;99.90;;;;;;5025680;28;19926;-65
2021/06/27 03:23:52;;;;;;;;;;;14.60;99.90;;;;;;5030422;28;19974;-66
2021/06/27 03:26:41;;;;;;;;;;;14.60;99.90;;;;;;5030583;28;19926;-66
2021/06/27 03:29:30;;;;;;;;;;;14.60;99.90;;;;;;5031346;28;19976;-65
2021/06/27 03:32:19;;;;;;;;;;;14.60;99.90;;;;;;5027320;28;19932;-65
2021/06/27 03:35:08;;;;;;;;;;;14.60;99.90;;;;;;5034522;28;19951;-65
2021/06/27 03:38:04;;;;;;;;;;;14.60;99.90;;;;;;5044989;28;19948;-66
2021/06/27 03:40:53;;;;;;;;;;;14.50;99.90;;;;;;5046770;28;19925;-66
2021/06/27 03:46:54;;;;;;;;;;;14.40;99.90;;;;;;5037811;28;19925;-65
2021/06/27 03:49:43;;;;;;;;;;;14.50;99.90;;;;;;5038887;28;20351;-65
2021/06/27 03:52:31;;;;;;;;;;;14.60;99.90;;;;;;5034033;28;19925;-66
2021/06/27 03:55:21;;;;;;;;;;;14.60;99.90;;;;;;5033114;28;19926;-66
2021/06/27 03:58:15;;;;;;;;;;;14.70;99.90;;;;;;5021728;28;19925;-66
2021/06/27 04:01:04;;;;;;;;;;;14.70;99.90;;;;;;5030183;28;19929;-66
2021/06/27 04:03:52;;;;;;;;;;;14.80;99.90;;;;;;5036810;28;19980;-65
2021/06/27 04:06:41;;;;;;;;;;;14.90;99.90;;;;;;5032560;28;19925;-66
2021/06/27 04:09:30;;;;;;;;;;;14.90;99.90;;;;;;5033897;28;19991;-65
2021/06/27 04:12:20;;;;;;;;;;;15.00;99.90;;;;;;5035034;28;19925;-66
2021/06/27 04:15:10;;;;;;;;;;;15.10;99.90;;;;;;5022508;28;19933;-65
2021/06/27 04:17:58;;;;;;;;;;;15.10;99.90;;;;;;5035048;28;19925;-66
2021/06/27 04:20:46;;;;;;;;;;;15.20;99.90;;;;;;5034119;28;19929;-66
2021/06/27 04:23:36;;;;;;;;;;;15.20;99.90;;;;;;5026479;28;20362;-67
2021/06/27 04:26:26;;;;;;;;;;;15.30;99.90;;;;;;5018264;28;19948;-66
2021/06/27 04:29:17;;;;;;;;;;;15.40;99.90;;;;;;5034301;28;19984;-65
2021/06/27 04:32:06;;;;;;;;;;;15.50;99.90;;;;;;5039715;28;19932;-66
2021/06/27 04:34:54;;;;;;;;;;;15.60;99.90;;;;;;5044559;28;19932;-66
2021/06/27 04:37:42;;;;;;;;;;;15.70;99.90;;;;;;5038702;28;19926;-66
2021/06/27 04:40:31;;;;;;;;;;;15.80;99.90;;;;;;5046433;28;19925;-65
2021/06/27 04:43:21;;;;;;;;;;;15.90;99.90;;;;;;5037212;28;19925;-66
2021/06/27 04:46:11;;;;;;;;;;;16.10;99.90;;;;;;5028903;28;20002;-65
2021/06/27 04:49:03;;;;;;;;;;;16.20;99.90;;;;;;5034582;28;19976;-65
2021/06/27 04:51:52;;;;;;;;;;;16.50;99.90;;;;;;5033092;28;19925;-65
2021/06/27 04:54:40;;;;;;;;;;;16.60;99.90;;;;;;5035734;28;19931;-65
2021/06/27 04:57:29;;;;;;;;;;;16.70;99.90;;;;;;5032261;28;19931;-65
2021/06/27 05:00:18;;;;;;;;;;;16.80;99.90;;;;;;5022155;28;19935;-66
2021/06/27 05:03:08;;;;;;;;;;;17.00;99.90;;;;;;5033786;28;20054;-65
2021/06/27 05:05:57;;;;;;;;;;;17.10;99.90;;;;;;5029730;28;19929;-65
2021/06/27 05:08:45;;;;;;;;;;;17.20;99.90;;;;;;5033374;28;20177;-66
2021/06/27 05:11:34;;;;;;;;;;;17.40;99.90;;;;;;5033100;28;19979;-65
2021/06/27 05:14:23;;;;;;;;;;;17.50;99.90;;;;;;5031371;28;19925;-66
2021/06/27 05:17:11;;;;;;;;;;;17.70;99.90;;;;;;5028102;28;19925;-67
2021/06/27 05:20:02;;;;;;;;;;;18.00;99.90;;;;;;5034649;28;20328;-65
2021/06/27 05:22:50;;;;;;;;;;;18.30;99.90;;;;;;5033783;28;19947;-66
2021/06/27 05:25:38;;;;;;;;;;;18.60;99.90;;;;;;5033310;28;20396;-64
2021/06/27 05:28:52;;;;;;;;;;;18.70;99.90;;;;;;5031109;28;19925;-64
2021/06/27 05:31:41;;;;;;;;;;;18.70;99.90;;;;;;5027466;28;19952;-64
2021/06/27 05:34:30;;;;;;;;;;;18.70;99.90;;;;;;5036870;28;19925;-63
2021/06/27 05:37:20;;;;;;;;;;;18.60;99.90;;;;;;5022415;28;19940;-62
2021/06/27 05:40:09;;;;;;;;;;;18.60;99.90;;;;;;5031502;28;20108;-63
2021/06/27 05:42:58;;;;;;;;;;;18.50;99.90;;;;;;5031470;28;19925;-63
2021/06/27 05:45:47;;;;;;;;;;;18.60;99.90;;;;;;5020112;28;19933;-63
2021/06/27 05:48:35;;;;;;;;;;;18.70;99.90;;;;;;5030850;28;19925;-63
2021/06/27 05:51:25;;;;;;;;;;;18.80;99.90;;;;;;5022410;28;19929;-63
2021/06/27 05:54:14;;;;;;;;;;;18.80;99.90;;;;;;5031485;28;19960;-63
2021/06/27 05:57:04;;;;;;;;;;;18.80;99.90;;;;;;5030382;28;19932;-62
2021/06/27 05:59:53;;;;;;;;;;;18.80;99.90;;;;;;5032725;28;19925;-62
2021/06/27 06:02:41;;;;;;;;;;;19.00;99.90;;;;;;5033325;28;19926;-62
2021/06/27 06:05:30;;;;;;;;;;;19.40;99.90;;;;;;5031837;28;20277;-62
2021/06/27 06:08:18;;;;;;;;;;;19.90;99.90;;;;;;5024435;28;19948;-63
2021/06/27 06:11:09;;;;;;;;;;;20.10;99.90;;;;;;5031498;28;19929;-65
2021/06/27 06:14:23;;;;;;;;;;;20.10;99.90;;;;;;5029094;28;19925;-62
2021/06/27 06:17:12;;;;;;;;;;;19.90;99.90;;;;;;5023550;28;20309;-63
2021/06/27 06:20:00;;;;;;;;;;;20.20;99.90;;;;;;5028813;28;20014;-64
2021/06/27 06:22:50;;;;;;;;;;;20.80;99.90;;;;;;5017864;28;19933;-68
2021/06/27 06:25:39;;;;;;;;;;;21.40;99.90;;;;;;5029183;28;19929;-65
2021/06/27 06:28:29;;;;;;;;;;;21.10;99.90;;;;;;5029245;28;19987;-65
2021/06/27 06:31:17;;;;;;;;;;;21.30;99.90;;;;;;5023852;28;19940;-66
2021/06/27 06:34:06;;;;;;;;;;;21.10;99.90;;;;;;5030470;28;19937;-66
2021/06/27 06:36:54;;;;;;;;;;;21.20;99.90;;;;;;5029455;28;20265;-66
2021/06/27 06:39:44;;;;;;;;;;;21.00;99.90;;;;;;5028453;28;19925;-66
2021/06/27 06:42:32;;;;;;;;;;;20.90;99.90;;;;;;5021264;28;19926;-66
2021/06/27 06:45:22;;;;;;;;;;;21.00;99.90;;;;;;5014995;28;19929;-66
2021/06/27 06:48:13;;;;;;;;;;;21.30;99.90;;;;;;5030983;28;19990;-67
2021/06/27 06:51:02;;;;;;;;;;;21.80;99.90;;;;;;5029745;28;19936;-64
2021/06/27 06:54:15;;;;;;;;;;;22.60;99.90;;;;;;5028884;28;19932;-66
2021/06/27 06:57:04;;;;;;;;;;;22.10;99.90;;;;;;5025103;28;19931;-66
2021/06/27 06:59:53;;;;;;;;;;;22.40;99.90;;;;;;5028449;28;19936;-66
2021/06/27 07:02:43;;;;;;;;;;;22.60;99.90;;;;;;5024381;28;19932;-66
2021/06/27 07:05:32;;;;;;;;;;;22.50;99.90;;;;;;5030140;28;19932;-66
2021/06/27 07:08:21;;;;;;;;;;;22.20;99.90;;;;;;5017493;28;19925;-66
2021/06/27 07:11:09;;;;;;;;;;;22.40;99.90;;;;;;5028656;28;19937;-66
2021/06/27 07:13:58;;;;;;;;;;;23.80;99.90;;;;;;5006322;28;19929;-66
2021/06/27 07:16:46;;;;;;;;;;;24.10;99.90;;;;;;5021646;28;19936;-66
2021/06/27 07:19:36;;;;;;;;;;;24.00;99.90;;;;;;5033864;28;19932;-66
2021/06/27 07:22:25;;;;;;;;;;;24.10;99.90;;;;;;5033096;28;20399;-66
2021/06/27 07:25:14;;;;;;;;;;;24.70;99.90;;;;;;5033358;28;20328;-65
2021/06/27 07:28:03;;;;;;;;;;;26.00;99.90;;;;;;5032914;28;20008;-66
2021/06/27 07:30:52;;;;;;;;;;;26.20;98.90;;;;;;5014520;28;20091;-67
2021/06/27 07:33:41;;;;;;;;;;;27.60;97.20;;;;;;5026786;28;19925;-67
2021/06/27 07:36:30;;;;;;;;;;;28.90;94.50;;;;;;5034596;28;19926;-67
2021/06/27 07:39:20;;;;;;;;;;;29.00;94.50;;;;;;5025165;28;19925;-67
2021/06/27 07:42:09;;;;;;;;;;;29.90;92.50;;;;;;5012714;28;19929;-67
2021/06/27 07:44:58;;;;;;;;;;;29.40;92.20;;;;;;5033198;28;19932;-67
2021/06/27 07:47:46;;;;;;;;;;;29.90;92.50;;;;;;5028798;28;19933;-67
2021/06/27 07:50:35;;;;;;;;;;;29.10;92.30;;;;;;5021638;28;19937;-67
2021/06/27 07:53:26;;;;;;;;;;;29.70;91.70;;;;;;5027885;28;19936;-67
2021/06/27 07:56:15;;;;;;;;;;;31.00;89.20;;;;;;5014499;28;20080;-67
2021/06/27 07:59:16;;;;;;;;;;;31.80;85.40;;;;;;5017357;28;19926;-68
2021/06/27 08:02:05;;;;;;;;;;;31.70;85.50;;;;;;5009133;28;20845;-68
2021/06/27 08:04:54;;;;;;;;;;;32.10;79.00;;;;;;5019762;28;20031;-67
2021/06/27 08:07:43;;;;;;;;;;;32.30;79.70;;;;;;5011096;28;19926;-68
2021/06/27 08:10:33;;;;;;;;;;;32.60;79.30;;;;;;5017837;28;19940;-68
2021/06/27 08:13:23;;;;;;;;;;;32.60;77.90;;;;;;5014348;28;19937;-68
2021/06/27 08:16:12;;;;;;;;;;;30.90;76.90;;;;;;5008761;28;19979;-68
2021/06/27 08:19:01;;;;;;;;;;;32.00;77.50;;;;;;5016601;28;20000;-68
2021/06/27 08:21:49;;;;;;;;;;;31.50;78.20;;;;;;5019118;28;20273;-68
2021/06/27 08:24:39;;;;;;;;;;;30.70;77.30;;;;;;5018165;28;19929;-67
2021/06/27 08:27:29;;;;;;;;;;;28.70;84.00;;;;;;5016913;28;19983;-67
2021/06/27 08:30:18;;;;;;;;;;;28.80;83.00;;;;;;5011443;28;19933;-67
2021/06/27 08:33:08;;;;;;;;;;;29.90;82.30;;;;;;5016455;28;19929;-67
2021/06/27 08:35:56;;;;;;;;;;;28.90;83.60;;;;;;5017749;28;20424;-67
2021/06/27 08:38:45;;;;;;;;;;;29.20;83.40;;;;;;5015394;28;20285;-68
2021/06/27 08:41:34;;;;;;;;;;;29.60;81.20;;;;;;5022167;28;19929;-67
2021/06/27 08:44:49;;;;;;;;;;;30.00;80.50;;;;;;5013736;28;20263;-67
2021/06/27 08:47:38;;;;;;;;;;;31.50;77.50;;;;;;5022922;28;19995;-68
2021/06/27 08:50:27;;;;;;;;;;;31.50;75.20;;;;;;5004548;28;20400;-67
2021/06/27 08:53:16;;;;;;;;;;;32.40;74.50;;;;;;5006368;28;19961;-67
2021/06/27 08:56:08;;;;;;;;;;;33.40;70.40;;;;;;5006725;28;19925;-67
2021/06/27 08:58:57;;;;;;;;;;;32.90;66.80;;;;;;5007227;28;19971;-67
2021/06/27 09:02:12;;;;;;;;;;;32.30;67.60;;;;;;5008719;28;20054;-70
2021/06/27 09:05:01;;;;;;;;;;;32.10;69.50;;;;;;5007003;28;19987;-68
2021/06/27 09:07:50;;;;;;;;;;;32.00;69.10;;;;;;5013218;28;20393;-66
2021/06/27 09:10:39;;;;;;;;;;;33.10;68.60;;;;;;5011781;28;19929;-67
2021/06/27 09:13:38;;;;;;;;;;;32.10;66.70;;;;;;4995836;28;19925;-67
2021/06/27 09:16:27;;;;;;;;;;;33.30;66.50;;;;;;4991258;28;19926;-69
2021/06/27 09:19:17;;;;;;;;;;;33.80;65.90;;;;;;4990552;28;19926;-69
2021/06/27 09:22:10;;;;;;;;;;;32.90;68.20;;;;;;4994100;28;20366;-68
2021/06/27 09:25:22;;;;;;;;;;;31.40;68.20;;;;;;4991618;28;19936;-70
2021/06/27 09:28:12;;;;;;;;;;;30.70;73.00;;;;;;4988831;28;20339;-68
2021/06/27 09:31:00;;;;;;;;;;;31.30;73.20;;;;;;4991939;28;20024;-67
2021/06/27 09:33:58;;;;;;;;;;;30.90;69.80;;;;;;5012046;28;19929;-71
2021/06/27 09:36:49;;;;;;;;;;;29.10;72.60;;;;;;5016627;28;20012;-66
2021/06/27 09:39:39;;;;;;;;;;;27.90;79.30;;;;;;5014326;28;20017;-66
2021/06/27 09:42:28;;;;;;;;;;;27.00;82.70;;;;;;5017980;28;19934;-67
2021/06/27 09:45:17;;;;;;;;;;;27.10;84.60;;;;;;5009809;28;19936;-66
2021/06/27 09:48:06;;;;;;;;;;;26.70;85.40;;;;;;5019530;28;19925;-68
2021/06/27 09:50:57;;;;;;;;;;;27.60;84.10;;;;;;5025322;28;20401;-67
2021/06/27 09:53:47;;;;;;;;;;;27.90;86.20;;;;;;5037300;28;19929;-65
2021/06/27 09:57:02;;;;;;;;;;;27.40;81.30;;;;;;5033611;28;20398;-67
2021/06/27 09:59:51;;;;;;;;;;;27.40;85.30;;;;;;5035922;28;19924;-65
2021/06/27 10:02:54;;;;;;;;;;;27.00;84.90;;;;;;5032861;28;19932;-66
2021/06/27 10:05:43;;;;;;;;;;;27.60;84.60;;;;;;5029092;28;19925;-68
2021/06/27 10:08:32;;;;;;;;;;;27.00;83.10;;;;;;5023148;28;20395;-68
2021/06/27 10:11:23;;;;;;;;;;;26.60;87.00;;;;;;5032493;28;19935;-66
2021/06/27 10:14:11;;;;;;;;;;;26.40;87.30;;;;;;5030959;28;19925;-67
2021/06/27 10:17:01;;;;;;;;;;;26.90;86.80;;;;;;5025335;28;19929;-66
2021/06/27 10:19:49;;;;;;;;;;;27.40;85.30;;;;;;5032817;28;19940;-66
2021/06/27 10:22:41;;;;;;;;;;;28.10;85.40;;;;;;5037303;28;19979;-66
2021/06/27 10:25:29;;;;;;;;;;;27.80;81.10;;;;;;5033057;28;23823;-67
2021/06/27 10:28:20;;;;;;;;;;;28.10;81.20;;;;;;5021470;28;20428;-66
2021/06/27 10:31:10;;;;;;;;;;;28.90;79.90;;;;;;5012554;28;20002;-67
2021/06/27 10:33:58;;;;;;;;;;;28.40;80.80;;;;;;5033758;28;19931;-67
2021/06/27 10:36:49;;;;;;;;;;;28.10;81.40;;;;;;5032711;28;19926;-65
2021/06/27 10:39:38;;;;;;;;;;;28.10;84.20;;;;;;5033321;28;19929;-67
2021/06/27 10:42:46;;;;;;;;;;;28.10;81.50;;;;;;5035706;28;20264;-66
2021/06/27 10:45:50;;;;;;;;;;;28.30;79.90;;;;;;5030780;28;19940;-66
2021/06/27 10:48:40;;;;;;;;;;;28.00;77.80;;;;;;5029668;28;20007;-66
2021/06/27 10:51:56;;;;;;;;;;;27.50;78.40;;;;;;5019218;28;20005;-66
2021/06/27 10:54:45;;;;;;;;;;;27.30;80.00;;;;;;5014077;28;20262;-66
2021/06/27 10:57:51;;;;;;;;;;;27.30;79.00;;;;;;5011781;28;19975;-66
2021/06/27 11:01:00;;;;;;;;;;;27.10;81.90;;;;;;5007850;28;19985;-66
2021/06/27 11:03:50;;;;;;;;;;;26.60;81.50;;;;;;5006847;28;20377;-68
2021/06/27 11:06:39;;;;;;;;;;;26.90;82.70;;;;;;5007754;28;19925;-66
2021/06/27 11:09:28;;;;;;;;;;;27.90;77.60;;;;;;5011350;28;19925;-66
2021/06/27 11:12:17;;;;;;;;;;;27.60;77.90;;;;;;5016176;28;19925;-67
2021/06/27 11:15:16;;;;;;;;;;;27.70;80.10;;;;;;5005230;28;19975;-66
2021/06/27 11:18:05;;;;;;;;;;;27.00;82.60;;;;;;4992110;28;20026;-67
2021/06/27 11:24:31;;;;;;;;;;;27.70;80.70;;;;;;4993180;28;19930;-66
2021/06/27 11:27:30;;;;;;;;;;;27.70;81.50;;;;;;4991316;28;19933;-67
2021/06/27 11:30:26;;;;;;;;;;;27.50;79.20;;;;;;4985187;28;20013;-66
2021/06/27 11:33:16;;;;;;;;;;;27.40;81.00;;;;;;4999335;28;19977;-66
2021/06/27 11:36:24;;;;;;;;;;;27.80;83.00;;;;;;4992270;28;20057;-67
2021/06/27 11:39:28;;;;;;;;;;;27.60;83.10;;;;;;4997662;28;19988;-67
2021/06/27 11:42:35;;;;;;;;;;;27.70;82.70;;;;;;4991405;28;19959;-66
2021/06/27 11:45:38;;;;;;;;;;;27.60;82.60;;;;;;4985343;28;19929;-66
2021/06/27 11:48:28;;;;;;;;;;;27.40;81.60;;;;;;4997609;28;19932;-67
2021/06/27 11:51:18;;;;;;;;;;;27.70;80.40;;;;;;5009644;28;19929;-67
2021/06/27 11:54:08;;;;;;;;;;;27.60;79.40;;;;;;4994636;28;20344;-67
2021/06/27 11:56:58;;;;;;;;;;;27.30;83.20;;;;;;5004949;28;19930;-66
2021/06/27 11:59:54;;;;;;;;;;;27.50;83.90;;;;;;4998463;28;19934;-66
2021/06/27 12:02:43;;;;;;;;;;;27.20;81.40;;;;;;5014146;28;19941;-66
2021/06/27 12:05:32;;;;;;;;;;;27.20;83.30;;;;;;5014495;28;20669;-66
2021/06/27 12:08:23;;;;;;;;;;;26.80;82.20;;;;;;5014676;28;20273;-68
2021/06/27 12:11:12;;;;;;;;;;;26.90;82.80;;;;;;5014672;28;19987;-66
2021/06/27 12:14:01;;;;;;;;;;;26.80;83.20;;;;;;5011009;28;19969;-66
2021/06/27 12:16:50;;;;;;;;;;;27.00;83.40;;;;;;4995069;28;19925;-66
2021/06/27 12:19:50;;;;;;;;;;;27.40;83.70;;;;;;4986014;28;19926;-65
2021/06/27 12:22:47;;;;;;;;;;;27.30;81.90;;;;;;4981588;28;19981;-65
2021/06/27 12:25:39;;;;;;;;;;;27.20;77.70;;;;;;4992486;28;19957;-65
2021/06/27 12:28:32;;;;;;;;;;;27.70;79.10;;;;;;4993605;28;19933;-66
2021/06/27 12:31:22;;;;;;;;;;;27.80;80.70;;;;;;4986595;28;19932;-70
2021/06/27 12:34:11;;;;;;;;;;;27.30;81.50;;;;;;4992013;28;19926;-66
2021/06/27 12:37:00;;;;;;;;;;;26.70;81.50;;;;;;4987921;28;19930;-67
2021/06/27 12:39:48;;;;;;;;;;;26.80;82.80;;;;;;4989979;28;19945;-66
2021/06/27 12:42:38;;;;;;;;;;;27.20;80.60;;;;;;4999963;28;19926;-66
2021/06/27 12:45:27;;;;;;;;;;;27.30;80.00;;;;;;4982569;28;19930;-66
2021/06/27 12:48:16;;;;;;;;;;;27.30;81.30;;;;;;5012067;28;19926;-66
2021/06/27 12:51:19;;;;;;;;;;;27.20;83.80;;;;;;5016888;28;20148;-65
2021/06/27 12:54:11;;;;;;;;;;;27.10;83.30;;;;;;5033333;28;20273;-66
2021/06/27 12:57:02;;;;;;;;;;;27.10;82.30;;;;;;5041755;28;20380;-67
2021/06/27 12:59:55;;;;;;;;;;;26.90;82.50;;;;;;5045329;28;20416;-66
2021/06/27 13:02:47;;;;;;;;;;;26.80;82.30;;;;;;5033660;28;19931;-66
2021/06/27 13:05:36;;;;;;;;;;;27.00;81.70;;;;;;5036038;28;19925;-66
2021/06/27 13:08:26;;;;;;;;;;;27.20;82.60;;;;;;5038763;28;19925;-66
2021/06/27 13:11:15;;;;;;;;;;;27.50;81.80;;;;;;5027673;28;19925;-66
2021/06/27 13:14:19;;;;;;;;;;;27.70;80.50;;;;;;5031100;28;19975;-66
2021/06/27 13:17:10;;;;;;;;;;;28.00;80.50;;;;;;5027398;28;19929;-66
2021/06/27 13:20:13;;;;;;;;;;;27.60;76.50;;;;;;5033880;28;20438;-66
2021/06/27 13:23:03;;;;;;;;;;;27.20;80.40;;;;;;5016026;28;19925;-65
2021/06/27 13:25:53;;;;;;;;;;;27.30;80.90;;;;;;5033343;28;20288;-66
2021/06/27 13:28:42;;;;;;;;;;;27.40;79.80;;;;;;5026334;28;20412;-67
2021/06/27 13:31:31;;;;;;;;;;;27.10;79.50;;;;;;5039329;28;19932;-65
2021/06/27 13:34:32;;;;;;;;;;;26.80;78.70;;;;;;5028105;28;20361;-66
2021/06/27 13:37:21;;;;;;;;;;;26.80;79.00;;;;;;5043000;28;19925;-67
2021/06/27 13:40:10;;;;;;;;;;;26.80;77.80;;;;;;5043504;28;20028;-66
2021/06/27 13:42:59;;;;;;;;;;;26.90;78.90;;;;;;5032471;28;20424;-67
2021/06/27 13:45:48;;;;;;;;;;;27.00;80.70;;;;;;5017661;28;19925;-66
2021/06/27 13:48:37;;;;;;;;;;;27.00;78.80;;;;;;5052117;28;19928;-66
2021/06/27 13:51:27;;;;;;;;;;;26.90;78.20;;;;;;5044604;28;19988;-66
2021/06/27 13:54:16;;;;;;;;;;;27.20;79.10;;;;;;5005620;28;19948;-66
2021/06/27 13:57:05;;;;;;;;;;;27.70;77.60;;;;;;5002765;28;20372;-65
2021/06/27 13:59:54;;;;;;;;;;;27.40;76.70;;;;;;4991711;28;19930;-65
2021/06/27 14:02:44;;;;;;;;;;;27.10;79.00;;;;;;5014372;28;19969;-65
2021/06/27 14:05:32;;;;;;;;;;;27.00;79.10;;;;;;5008589;28;20016;-64
2021/06/27 14:08:23;;;;;;;;;;;26.80;79.00;;;;;;5011457;28;20412;-64
2021/06/27 14:11:12;;;;;;;;;;;26.80;78.60;;;;;;5009329;28;20039;-64
2021/06/27 14:14:01;;;;;;;;;;;27.10;79.10;;;;;;5012711;28;19929;-64
2021/06/27 14:16:49;;;;;;;;;;;27.30;78.40;;;;;;5001755;28;19975;-66
2021/06/27 14:19:38;;;;;;;;;;;27.50;78.90;;;;;;5012024;28;19929;-66
2021/06/27 14:22:26;;;;;;;;;;;27.50;76.30;;;;;;5011432;28;20473;-66
2021/06/27 14:25:17;;;;;;;;;;;27.60;78.40;;;;;;5013148;28;20266;-64
2021/06/27 14:28:06;;;;;;;;;;;27.70;77.70;;;;;;5012333;28;20362;-64
2021/06/27 14:30:54;;;;;;;;;;;27.60;76.60;;;;;;5002119;28;19930;-65
2021/06/27 14:33:42;;;;;;;;;;;27.60;76.20;;;;;;5012192;28;19925;-65
2021/06/27 14:36:31;;;;;;;;;;;27.40;76.60;;;;;;5011130;28;19929;-65
2021/06/27 14:39:25;;;;;;;;;;;27.20;80.50;;;;;;5011505;28;20007;-66
2021/06/27 14:42:15;;;;;;;;;;;27.20;78.50;;;;;;5012300;28;19925;-66
2021/06/27 14:45:05;;;;;;;;;;;26.90;77.30;;;;;;4997602;28;19984;-66
2021/06/27 14:47:56;;;;;;;;;;;26.80;78.70;;;;;;5030746;28;19940;-65
2021/06/27 14:54:02;;;;;;;;;;;26.80;77.00;;;;;;5027400;28;19971;-67
2021/06/27 14:57:00;;;;;;;;;;;26.60;79.60;;;;;;5018197;28;20427;-67
2021/06/27 14:59:53;;;;;;;;;;;26.60;78.30;;;;;;5027378;28;19929;-66
2021/06/27 15:02:41;;;;;;;;;;;26.60;79.20;;;;;;5028344;28;19933;-66
2021/06/27 15:05:30;;;;;;;;;;;26.60;78.30;;;;;;5030814;28;19925;-66
2021/06/27 15:08:19;;;;;;;;;;;26.70;79.60;;;;;;5032140;28;19932;-67
2021/06/27 15:11:08;;;;;;;;;;;26.80;77.50;;;;;;5035335;28;19993;-66
2021/06/27 15:13:57;;;;;;;;;;;26.80;76.10;;;;;;5030968;28;19925;-69
2021/06/27 15:16:47;;;;;;;;;;;26.90;75.30;;;;;;5022407;28;20031;-68
2021/06/27 15:19:36;;;;;;;;;;;27.00;75.70;;;;;;5027791;28;19936;-68
2021/06/27 15:22:24;;;;;;;;;;;27.00;77.70;;;;;;5029769;28;20055;-68
2021/06/27 15:25:13;;;;;;;;;;;26.90;76.20;;;;;;5029326;28;20035;-68
2021/06/27 15:28:04;;;;;;;;;;;26.80;75.60;;;;;;5030119;28;19936;-69
2021/06/27 15:30:53;;;;;;;;;;;26.60;73.90;;;;;;5027208;28;19931;-69
2021/06/27 15:33:43;;;;;;;;;;;26.80;75.40;;;;;;5036485;28;20373;-68
2021/06/27 15:36:32;;;;;;;;;;;26.90;76.50;;;;;;5035908;28;20273;-68
2021/06/27 15:39:20;;;;;;;;;;;26.90;73.90;;;;;;5032943;28;20255;-67
2021/06/27 15:42:09;;;;;;;;;;;26.80;76.10;;;;;;5033921;28;19932;-69
2021/06/27 15:44:58;;;;;;;;;;;26.90;74.70;;;;;;5024890;28;19925;-68
2021/06/27 15:47:46;;;;;;;;;;;27.00;77.50;;;;;;5033309;28;19944;-68
2021/06/27 15:51:00;;;;;;;;;;;27.20;77.20;;;;;;5031970;28;19956;-68
2021/06/27 15:57:03;;;;;;;;;;;27.10;74.70;;;;;;5014601;28;19926;-68
2021/06/27 15:59:52;;;;;;;;;;;27.00;75.40;;;;;;5012595;28;20373;-68
2021/06/27 16:02:41;;;;;;;;;;;27.10;77.00;;;;;;5041665;28;19941;-67
2021/06/27 16:05:31;;;;;;;;;;;27.20;79.50;;;;;;5036172;28;19941;-68
2021/06/27 16:08:30;;;;;;;;;;;27.20;76.20;;;;;;5032193;28;19929;-68
2021/06/27 16:11:21;;;;;;;;;;;27.10;75.70;;;;;;5033864;28;19940;-66
2021/06/27 16:14:10;;;;;;;;;;;27.00;75.00;;;;;;5035455;28;19933;-67
2021/06/27 16:16:58;;;;;;;;;;;26.80;73.10;;;;;;5029386;28;20276;-68
2021/06/27 16:19:47;;;;;;;;;;;26.90;73.80;;;;;;5034070;28;19929;-66
2021/06/27 16:22:36;;;;;;;;;;;26.90;74.40;;;;;;5036392;28;20024;-65
2021/06/27 16:25:24;;;;;;;;;;;26.90;72.50;;;;;;5034874;28;19975;-65
2021/06/27 16:28:14;;;;;;;;;;;26.90;72.90;;;;;;5030754;28;19957;-65
2021/06/27 16:31:03;;;;;;;;;;;26.90;72.80;;;;;;5029982;28;20018;-65
2021/06/27 16:33:52;;;;;;;;;;;27.00;73.60;;;;;;5032534;28;20275;-65
2021/06/27 16:36:40;;;;;;;;;;;26.80;74.50;;;;;;5033088;28;19933;-65
2021/06/27 16:39:31;;;;;;;;;;;26.60;73.60;;;;;;5032289;28;19940;-65
2021/06/27 16:42:19;;;;;;;;;;;26.60;73.70;;;;;;5036215;28;19933;-65
2021/06/27 16:45:11;;;;;;;;;;;26.50;73.40;;;;;;5025607;28;19925;-65
2021/06/27 16:48:00;;;;;;;;;;;26.50;75.00;;;;;;5018403;28;19932;-65